sensor_id;sensor_type;location;lat;lon;timestamp;P1;durP1;ratioP1;P2;durP2;ratioP2
47922;SDS011;33688;44.354;9.228;2022-10-16T00:02:05;2.20;;;2.00;;
47922;SDS011;33688;44.354;9.228;2022-10-16T00:04:30;2.67;;;2.20;;
47922;SDS011;33688;44.354;9.228;2022-10-16T00:06:56;2.30;;;2.10;;
47922;SDS011;33688;44.354;9.228;2022-10-16T00:09:22;2.38;;;2.17;;
47922;SDS011;33688;44.354;9.228;2022-10-16T00:11:48;3.38;;;2.45;;
47922;SDS011;33688;44.354;9.228;2022-10-16T00:14:14;2.10;;;1.90;;
47922;SDS011;33688;44.354;9.228;2022-10-16T00:16:40;3.17;;;2.40;;
47922;SDS011;33688;44.354;9.228;2022-10-16T00:19:07;2.33;;;2.13;;
47922;SDS011;33688;44.354;9.228;2022-10-16T00:21:34;3.03;;;2.13;;
47922;SDS011;33688;44.354;9.228;2022-10-16T00:24:04;2.20;;;2.00;;
47922;SDS011;33688;44.354;9.228;2022-10-16T00:26:36;2.25;;;2.05;;
47922;SDS011;33688;44.354;9.228;2022-10-16T00:29:04;3.42;;;2.20;;
47922;SDS011;33688;44.354;9.228;2022-10-16T00:31:30;3.67;;;2.17;;
47922;SDS011;33688;44.354;9.228;2022-10-16T00:33:56;2.33;;;2.13;;
47922;SDS011;33688;44.354;9.228;2022-10-16T00:36:23;2.15;;;1.95;;
47922;SDS011;33688;44.354;9.228;2022-10-16T00:38:51;2.50;;;2.25;;
47922;SDS011;33688;44.354;9.228;2022-10-16T00:41:19;1.98;;;1.77;;
47922;SDS011;33688;44.354;9.228;2022-10-16T00:43:52;2.53;;;2.33;;
47922;SDS011;33688;44.354;9.228;2022-10-16T00:46:25;2.28;;;2.08;;
47922;SDS011;33688;44.354;9.228;2022-10-16T00:51:34;2.00;;;1.75;;
47922;SDS011;33688;44.354;9.228;2022-10-16T00:54:01;2.45;;;2.25;;
47922;SDS011;33688;44.354;9.228;2022-10-16T00:56:31;2.42;;;2.13;;
47922;SDS011;33688;44.354;9.228;2022-10-16T00:58:58;2.88;;;2.08;;
47922;SDS011;33688;44.354;9.228;2022-10-16T01:01:27;2.15;;;1.95;;
47922;SDS011;33688;44.354;9.228;2022-10-16T01:03:53;2.25;;;2.05;;
47922;SDS011;33688;44.354;9.228;2022-10-16T01:06:21;2.15;;;1.95;;
47922;SDS011;33688;44.354;9.228;2022-10-16T01:09:13;2.15;;;1.95;;
47922;SDS011;33688;44.354;9.228;2022-10-16T01:12:36;2.38;;;2.17;;
47922;SDS011;33688;44.354;9.228;2022-10-16T01:15:14;1.88;;;1.60;;
47922;SDS011;33688;44.354;9.228;2022-10-16T01:20:45;2.30;;;2.10;;
47922;SDS011;33688;44.354;9.228;2022-10-16T01:26:32;2.05;;;1.85;;
47922;SDS011;33688;44.354;9.228;2022-10-16T01:31:54;2.08;;;1.88;;
47922;SDS011;33688;44.354;9.228;2022-10-16T01:34:28;2.35;;;2.15;;
47922;SDS011;33688;44.354;9.228;2022-10-16T01:37:02;2.03;;;1.90;;
47922;SDS011;33688;44.354;9.228;2022-10-16T01:39:33;2.22;;;1.90;;
47922;SDS011;33688;44.354;9.228;2022-10-16T01:42:14;1.92;;;1.83;;
47922;SDS011;33688;44.354;9.228;2022-10-16T01:44:48;2.58;;;2.13;;
47922;SDS011;33688;44.354;9.228;2022-10-16T01:47:16;1.88;;;1.70;;
47922;SDS011;33688;44.354;9.228;2022-10-16T01:49:44;2.25;;;2.03;;
47922;SDS011;33688;44.354;9.228;2022-10-16T01:52:13;1.92;;;1.80;;
47922;SDS011;33688;44.354;9.228;2022-10-16T01:54:45;2.08;;;1.63;;
47922;SDS011;33688;44.354;9.228;2022-10-16T01:57:15;1.73;;;1.63;;
47922;SDS011;33688;44.354;9.228;2022-10-16T01:59:45;2.60;;;1.95;;
47922;SDS011;33688;44.354;9.228;2022-10-16T02:02:17;2.55;;;1.80;;
47922;SDS011;33688;44.354;9.228;2022-10-16T02:04:58;2.42;;;2.22;;
47922;SDS011;33688;44.354;9.228;2022-10-16T02:07:34;1.92;;;1.83;;
47922;SDS011;33688;44.354;9.228;2022-10-16T02:10:00;2.75;;;2.08;;
47922;SDS011;33688;44.354;9.228;2022-10-16T02:12:28;2.08;;;1.67;;
47922;SDS011;33688;44.354;9.228;2022-10-16T02:14:58;1.85;;;1.67;;
47922;SDS011;33688;44.354;9.228;2022-10-16T02:17:24;1.83;;;1.73;;
47922;SDS011;33688;44.354;9.228;2022-10-16T02:19:52;2.75;;;2.08;;
47922;SDS011;33688;44.354;9.228;2022-10-16T02:22:42;1.67;;;1.58;;
47922;SDS011;33688;44.354;9.228;2022-10-16T02:25:19;1.88;;;1.65;;
47922;SDS011;33688;44.354;9.228;2022-10-16T02:30:42;2.10;;;1.90;;
47922;SDS011;33688;44.354;9.228;2022-10-16T02:33:22;2.65;;;1.63;;
47922;SDS011;33688;44.354;9.228;2022-10-16T02:35:50;2.00;;;1.70;;
47922;SDS011;33688;44.354;9.228;2022-10-16T02:38:17;1.70;;;1.60;;
47922;SDS011;33688;44.354;9.228;2022-10-16T02:40:45;1.60;;;1.50;;
47922;SDS011;33688;44.354;9.228;2022-10-16T02:43:12;1.70;;;1.60;;
47922;SDS011;33688;44.354;9.228;2022-10-16T02:45:38;1.90;;;1.73;;
47922;SDS011;33688;44.354;9.228;2022-10-16T02:48:04;1.50;;;1.38;;
47922;SDS011;33688;44.354;9.228;2022-10-16T02:50:31;1.95;;;1.65;;
47922;SDS011;33688;44.354;9.228;2022-10-16T02:52:57;1.60;;;1.50;;
47922;SDS011;33688;44.354;9.228;2022-10-16T02:55:23;1.95;;;1.83;;
47922;SDS011;33688;44.354;9.228;2022-10-16T02:57:49;1.65;;;1.55;;
47922;SDS011;33688;44.354;9.228;2022-10-16T03:00:15;1.60;;;1.50;;
47922;SDS011;33688;44.354;9.228;2022-10-16T03:02:43;1.70;;;1.60;;
47922;SDS011;33688;44.354;9.228;2022-10-16T03:05:09;2.10;;;1.75;;
47922;SDS011;33688;44.354;9.228;2022-10-16T03:07:36;2.97;;;1.90;;
47922;SDS011;33688;44.354;9.228;2022-10-16T03:10:02;2.38;;;1.45;;
47922;SDS011;33688;44.354;9.228;2022-10-16T03:12:29;1.70;;;1.60;;
47922;SDS011;33688;44.354;9.228;2022-10-16T03:14:55;1.80;;;1.33;;
47922;SDS011;33688;44.354;9.228;2022-10-16T03:17:22;1.58;;;1.48;;
47922;SDS011;33688;44.354;9.228;2022-10-16T03:19:49;1.67;;;1.42;;
47922;SDS011;33688;44.354;9.228;2022-10-16T03:22:15;2.03;;;1.48;;
47922;SDS011;33688;44.354;9.228;2022-10-16T03:24:41;1.70;;;1.60;;
47922;SDS011;33688;44.354;9.228;2022-10-16T03:27:07;1.80;;;1.70;;
47922;SDS011;33688;44.354;9.228;2022-10-16T03:29:33;1.50;;;1.40;;
47922;SDS011;33688;44.354;9.228;2022-10-16T03:31:58;1.85;;;1.65;;
47922;SDS011;33688;44.354;9.228;2022-10-16T03:34:25;2.10;;;1.90;;
47922;SDS011;33688;44.354;9.228;2022-10-16T03:36:51;1.92;;;1.60;;
47922;SDS011;33688;44.354;9.228;2022-10-16T03:39:17;1.60;;;1.50;;
47922;SDS011;33688;44.354;9.228;2022-10-16T03:41:43;1.70;;;1.30;;
47922;SDS011;33688;44.354;9.228;2022-10-16T03:44:08;1.65;;;1.55;;
47922;SDS011;33688;44.354;9.228;2022-10-16T03:46:34;1.63;;;1.45;;
47922;SDS011;33688;44.354;9.228;2022-10-16T03:49:00;1.98;;;1.40;;
47922;SDS011;33688;44.354;9.228;2022-10-16T03:51:25;1.88;;;1.77;;
47922;SDS011;33688;44.354;9.228;2022-10-16T03:53:51;2.20;;;1.95;;
47922;SDS011;33688;44.354;9.228;2022-10-16T03:56:17;4.35;;;1.50;;
47922;SDS011;33688;44.354;9.228;2022-10-16T03:58:43;1.60;;;1.50;;
47922;SDS011;33688;44.354;9.228;2022-10-16T04:01:09;1.50;;;1.40;;
47922;SDS011;33688;44.354;9.228;2022-10-16T04:03:35;1.83;;;1.50;;
47922;SDS011;33688;44.354;9.228;2022-10-16T04:06:01;2.10;;;1.50;;
47922;SDS011;33688;44.354;9.228;2022-10-16T04:08:26;1.58;;;1.42;;
47922;SDS011;33688;44.354;9.228;2022-10-16T04:10:52;1.60;;;1.50;;
47922;SDS011;33688;44.354;9.228;2022-10-16T04:13:18;1.70;;;1.60;;
47922;SDS011;33688;44.354;9.228;2022-10-16T04:15:44;1.50;;;1.38;;
47922;SDS011;33688;44.354;9.228;2022-10-16T04:18:10;1.70;;;1.60;;
47922;SDS011;33688;44.354;9.228;2022-10-16T04:20:36;1.80;;;1.70;;
47922;SDS011;33688;44.354;9.228;2022-10-16T04:23:03;1.30;;;1.20;;
47922;SDS011;33688;44.354;9.228;2022-10-16T04:25:29;1.60;;;1.50;;
47922;SDS011;33688;44.354;9.228;2022-10-16T04:27:55;1.27;;;1.17;;
47922;SDS011;33688;44.354;9.228;2022-10-16T04:30:22;1.55;;;1.45;;
47922;SDS011;33688;44.354;9.228;2022-10-16T04:32:50;1.98;;;1.30;;
47922;SDS011;33688;44.354;9.228;2022-10-16T04:35:20;1.35;;;1.25;;
47922;SDS011;33688;44.354;9.228;2022-10-16T04:37:46;1.50;;;1.40;;
47922;SDS011;33688;44.354;9.228;2022-10-16T04:40:13;1.73;;;1.63;;
47922;SDS011;33688;44.354;9.228;2022-10-16T04:42:39;1.80;;;1.70;;
47922;SDS011;33688;44.354;9.228;2022-10-16T04:45:06;1.70;;;1.40;;
47922;SDS011;33688;44.354;9.228;2022-10-16T04:47:33;1.67;;;1.52;;
47922;SDS011;33688;44.354;9.228;2022-10-16T04:50:00;1.55;;;1.45;;
47922;SDS011;33688;44.354;9.228;2022-10-16T04:52:27;1.75;;;1.65;;
47922;SDS011;33688;44.354;9.228;2022-10-16T04:54:53;1.55;;;1.45;;
47922;SDS011;33688;44.354;9.228;2022-10-16T04:57:22;1.52;;;1.42;;
47922;SDS011;33688;44.354;9.228;2022-10-16T04:59:48;1.52;;;1.42;;
47922;SDS011;33688;44.354;9.228;2022-10-16T05:02:14;1.40;;;1.30;;
47922;SDS011;33688;44.354;9.228;2022-10-16T05:04:40;1.70;;;1.30;;
47922;SDS011;33688;44.354;9.228;2022-10-16T05:07:05;2.45;;;1.65;;
47922;SDS011;33688;44.354;9.228;2022-10-16T05:09:31;1.73;;;1.60;;
47922;SDS011;33688;44.354;9.228;2022-10-16T05:11:57;1.45;;;1.35;;
47922;SDS011;33688;44.354;9.228;2022-10-16T05:14:23;2.10;;;1.60;;
47922;SDS011;33688;44.354;9.228;2022-10-16T05:16:49;1.70;;;1.48;;
47922;SDS011;33688;44.354;9.228;2022-10-16T05:19:15;1.35;;;1.25;;
47922;SDS011;33688;44.354;9.228;2022-10-16T05:21:41;1.65;;;1.30;;
47922;SDS011;33688;44.354;9.228;2022-10-16T05:24:07;1.25;;;1.10;;
47922;SDS011;33688;44.354;9.228;2022-10-16T05:26:34;1.77;;;1.55;;
47922;SDS011;33688;44.354;9.228;2022-10-16T05:29:00;1.50;;;1.40;;
47922;SDS011;33688;44.354;9.228;2022-10-16T05:31:26;1.33;;;1.23;;
47922;SDS011;33688;44.354;9.228;2022-10-16T05:33:52;1.73;;;1.30;;
47922;SDS011;33688;44.354;9.228;2022-10-16T05:36:22;1.50;;;1.40;;
47922;SDS011;33688;44.354;9.228;2022-10-16T05:38:50;1.50;;;1.40;;
47922;SDS011;33688;44.354;9.228;2022-10-16T05:41:16;1.38;;;1.27;;
47922;SDS011;33688;44.354;9.228;2022-10-16T05:43:46;1.40;;;1.30;;
47922;SDS011;33688;44.354;9.228;2022-10-16T05:46:15;1.75;;;1.65;;
47922;SDS011;33688;44.354;9.228;2022-10-16T05:48:43;1.42;;;1.33;;
47922;SDS011;33688;44.354;9.228;2022-10-16T05:51:09;1.45;;;1.35;;
47922;SDS011;33688;44.354;9.228;2022-10-16T05:53:37;1.23;;;1.13;;
47922;SDS011;33688;44.354;9.228;2022-10-16T05:56:05;1.27;;;1.15;;
47922;SDS011;33688;44.354;9.228;2022-10-16T05:58:35;2.47;;;1.40;;
47922;SDS011;33688;44.354;9.228;2022-10-16T06:01:11;1.52;;;1.25;;
47922;SDS011;33688;44.354;9.228;2022-10-16T06:03:41;1.20;;;1.10;;
47922;SDS011;33688;44.354;9.228;2022-10-16T06:06:07;1.83;;;1.50;;
47922;SDS011;33688;44.354;9.228;2022-10-16T06:08:42;1.48;;;1.38;;
47922;SDS011;33688;44.354;9.228;2022-10-16T06:11:14;1.40;;;1.30;;
47922;SDS011;33688;44.354;9.228;2022-10-16T06:13:42;1.50;;;1.40;;
47922;SDS011;33688;44.354;9.228;2022-10-16T06:16:12;1.73;;;1.52;;
47922;SDS011;33688;44.354;9.228;2022-10-16T06:18:38;1.05;;;1.00;;
47922;SDS011;33688;44.354;9.228;2022-10-16T06:21:08;1.40;;;1.27;;
47922;SDS011;33688;44.354;9.228;2022-10-16T06:23:47;1.30;;;1.20;;
47922;SDS011;33688;44.354;9.228;2022-10-16T06:26:14;1.02;;;0.93;;
47922;SDS011;33688;44.354;9.228;2022-10-16T06:28:43;1.33;;;1.23;;
47922;SDS011;33688;44.354;9.228;2022-10-16T06:31:09;1.40;;;1.30;;
47922;SDS011;33688;44.354;9.228;2022-10-16T06:33:37;1.50;;;1.40;;
47922;SDS011;33688;44.354;9.228;2022-10-16T06:36:04;1.20;;;1.10;;
47922;SDS011;33688;44.354;9.228;2022-10-16T06:38:33;1.42;;;1.10;;
47922;SDS011;33688;44.354;9.228;2022-10-16T06:41:00;1.20;;;1.10;;
47922;SDS011;33688;44.354;9.228;2022-10-16T06:43:26;1.33;;;1.23;;
47922;SDS011;33688;44.354;9.228;2022-10-16T06:45:56;1.33;;;1.23;;
47922;SDS011;33688;44.354;9.228;2022-10-16T06:48:22;1.20;;;1.10;;
47922;SDS011;33688;44.354;9.228;2022-10-16T06:50:59;2.80;;;1.30;;
47922;SDS011;33688;44.354;9.228;2022-10-16T06:53:32;1.92;;;1.25;;
47922;SDS011;33688;44.354;9.228;2022-10-16T06:58:42;1.35;;;1.20;;
47922;SDS011;33688;44.354;9.228;2022-10-16T07:01:09;1.40;;;1.30;;
47922;SDS011;33688;44.354;9.228;2022-10-16T07:03:36;1.30;;;1.20;;
47922;SDS011;33688;44.354;9.228;2022-10-16T07:06:04;1.30;;;1.20;;
47922;SDS011;33688;44.354;9.228;2022-10-16T07:08:32;1.33;;;1.20;;
47922;SDS011;33688;44.354;9.228;2022-10-16T07:11:04;1.50;;;1.40;;
47922;SDS011;33688;44.354;9.228;2022-10-16T07:13:35;1.20;;;1.10;;
47922;SDS011;33688;44.354;9.228;2022-10-16T07:16:12;1.83;;;1.45;;
47922;SDS011;33688;44.354;9.228;2022-10-16T07:18:41;1.38;;;1.27;;
47922;SDS011;33688;44.354;9.228;2022-10-16T07:21:10;0.90;;;0.85;;
47922;SDS011;33688;44.354;9.228;2022-10-16T07:23:41;1.00;;;1.00;;
47922;SDS011;33688;44.354;9.228;2022-10-16T07:26:08;1.05;;;1.05;;
47922;SDS011;33688;44.354;9.228;2022-10-16T07:28:35;1.13;;;1.00;;
47922;SDS011;33688;44.354;9.228;2022-10-16T07:31:02;1.20;;;1.10;;
47922;SDS011;33688;44.354;9.228;2022-10-16T07:33:33;1.30;;;1.20;;
47922;SDS011;33688;44.354;9.228;2022-10-16T07:36:00;1.17;;;1.08;;
47922;SDS011;33688;44.354;9.228;2022-10-16T07:38:26;1.08;;;1.00;;
47922;SDS011;33688;44.354;9.228;2022-10-16T07:40:58;1.52;;;1.08;;
47922;SDS011;33688;44.354;9.228;2022-10-16T07:43:30;1.30;;;1.20;;
47922;SDS011;33688;44.354;9.228;2022-10-16T07:45:56;2.10;;;1.58;;
47922;SDS011;33688;44.354;9.228;2022-10-16T07:48:23;1.50;;;1.40;;
47922;SDS011;33688;44.354;9.228;2022-10-16T07:53:24;1.38;;;1.08;;
47922;SDS011;33688;44.354;9.228;2022-10-16T07:55:51;1.77;;;1.10;;
47922;SDS011;33688;44.354;9.228;2022-10-16T07:58:17;1.27;;;1.10;;
47922;SDS011;33688;44.354;9.228;2022-10-16T08:00:43;1.10;;;1.08;;
47922;SDS011;33688;44.354;9.228;2022-10-16T08:03:09;1.30;;;1.17;;
47922;SDS011;33688;44.354;9.228;2022-10-16T08:05:36;1.40;;;1.30;;
47922;SDS011;33688;44.354;9.228;2022-10-16T08:08:02;1.25;;;1.15;;
47922;SDS011;33688;44.354;9.228;2022-10-16T08:10:28;1.30;;;1.20;;
47922;SDS011;33688;44.354;9.228;2022-10-16T08:12:54;1.40;;;1.30;;
47922;SDS011;33688;44.354;9.228;2022-10-16T08:15:20;3.97;;;1.23;;
47922;SDS011;33688;44.354;9.228;2022-10-16T08:17:56;3.72;;;1.48;;
47922;SDS011;33688;44.354;9.228;2022-10-16T08:20:29;4.32;;;1.30;;
47922;SDS011;33688;44.354;9.228;2022-10-16T08:22:57;1.05;;;0.98;;
47922;SDS011;33688;44.354;9.228;2022-10-16T08:25:23;1.50;;;1.40;;
47922;SDS011;33688;44.354;9.228;2022-10-16T08:27:50;1.38;;;1.27;;
47922;SDS011;33688;44.354;9.228;2022-10-16T08:30:18;2.58;;;1.30;;
47922;SDS011;33688;44.354;9.228;2022-10-16T08:32:46;1.40;;;1.10;;
47922;SDS011;33688;44.354;9.228;2022-10-16T08:35:13;1.92;;;1.50;;
47922;SDS011;33688;44.354;9.228;2022-10-16T08:37:40;1.30;;;1.20;;
47922;SDS011;33688;44.354;9.228;2022-10-16T08:40:07;3.13;;;1.40;;
47922;SDS011;33688;44.354;9.228;2022-10-16T08:43:11;1.50;;;1.40;;
47922;SDS011;33688;44.354;9.228;2022-10-16T08:51:07;1.92;;;1.42;;
47922;SDS011;33688;44.354;9.228;2022-10-16T08:53:43;3.20;;;1.73;;
47922;SDS011;33688;44.354;9.228;2022-10-16T08:56:17;1.70;;;1.60;;
47922;SDS011;33688;44.354;9.228;2022-10-16T08:58:44;1.50;;;1.40;;
47922;SDS011;33688;44.354;9.228;2022-10-16T09:01:13;2.53;;;1.25;;
47922;SDS011;33688;44.354;9.228;2022-10-16T09:07:01;1.95;;;1.70;;
47922;SDS011;33688;44.354;9.228;2022-10-16T09:09:49;2.00;;;1.73;;
47922;SDS011;33688;44.354;9.228;2022-10-16T09:18:16;2.42;;;1.38;;
47922;SDS011;33688;44.354;9.228;2022-10-16T09:21:09;1.88;;;1.58;;
47922;SDS011;33688;44.354;9.228;2022-10-16T09:23:54;1.85;;;1.40;;
47922;SDS011;33688;44.354;9.228;2022-10-16T09:26:25;1.95;;;1.55;;
47922;SDS011;33688;44.354;9.228;2022-10-16T09:28:52;2.08;;;1.42;;
47922;SDS011;33688;44.354;9.228;2022-10-16T09:31:19;2.80;;;1.50;;
47922;SDS011;33688;44.354;9.228;2022-10-16T09:33:55;2.05;;;1.45;;
47922;SDS011;33688;44.354;9.228;2022-10-16T09:36:32;1.20;;;1.10;;
47922;SDS011;33688;44.354;9.228;2022-10-16T09:39:08;4.70;;;1.90;;
47922;SDS011;33688;44.354;9.228;2022-10-16T09:41:40;1.80;;;1.63;;
47922;SDS011;33688;44.354;9.228;2022-10-16T09:44:17;1.45;;;1.15;;
47922;SDS011;33688;44.354;9.228;2022-10-16T09:47:00;1.67;;;1.30;;
47922;SDS011;33688;44.354;9.228;2022-10-16T09:49:29;1.95;;;1.20;;
47922;SDS011;33688;44.354;9.228;2022-10-16T09:52:14;1.85;;;1.50;;
47922;SDS011;33688;44.354;9.228;2022-10-16T09:54:50;1.83;;;1.50;;
47922;SDS011;33688;44.354;9.228;2022-10-16T09:57:22;1.60;;;1.40;;
47922;SDS011;33688;44.354;9.228;2022-10-16T09:59:52;1.65;;;1.20;;
47922;SDS011;33688;44.354;9.228;2022-10-16T10:02:34;1.40;;;1.30;;
47922;SDS011;33688;44.354;9.228;2022-10-16T10:05:04;2.15;;;1.42;;
47922;SDS011;33688;44.354;9.228;2022-10-16T10:07:42;1.50;;;1.33;;
47922;SDS011;33688;44.354;9.228;2022-10-16T10:10:19;1.80;;;1.50;;
47922;SDS011;33688;44.354;9.228;2022-10-16T10:12:54;1.73;;;1.50;;
47922;SDS011;33688;44.354;9.228;2022-10-16T10:15:21;1.83;;;1.60;;
47922;SDS011;33688;44.354;9.228;2022-10-16T10:17:53;2.13;;;1.48;;
47922;SDS011;33688;44.354;9.228;2022-10-16T10:22:59;1.60;;;1.20;;
47922;SDS011;33688;44.354;9.228;2022-10-16T10:28:35;2.08;;;1.27;;
47922;SDS011;33688;44.354;9.228;2022-10-16T10:34:11;2.05;;;1.55;;
47922;SDS011;33688;44.354;9.228;2022-10-16T10:36:47;2.35;;;1.45;;
47922;SDS011;33688;44.354;9.228;2022-10-16T10:39:31;1.98;;;1.50;;
47922;SDS011;33688;44.354;9.228;2022-10-16T10:42:17;1.77;;;1.55;;
47922;SDS011;33688;44.354;9.228;2022-10-16T10:45:26;1.75;;;1.33;;
47922;SDS011;33688;44.354;9.228;2022-10-16T10:51:04;1.40;;;1.30;;
47922;SDS011;33688;44.354;9.228;2022-10-16T10:56:51;2.13;;;1.52;;
47922;SDS011;33688;44.354;9.228;2022-10-16T11:07:40;1.88;;;1.52;;
47922;SDS011;33688;44.354;9.228;2022-10-16T11:10:16;1.35;;;1.25;;
47922;SDS011;33688;44.354;9.228;2022-10-16T11:12:50;2.92;;;1.70;;
47922;SDS011;33688;44.354;9.228;2022-10-16T11:15:29;1.20;;;1.10;;
47922;SDS011;33688;44.354;9.228;2022-10-16T11:18:11;2.13;;;1.38;;
47922;SDS011;33688;44.354;9.228;2022-10-16T11:21:08;1.60;;;1.30;;
47922;SDS011;33688;44.354;9.228;2022-10-16T11:26:30;1.65;;;1.40;;
47922;SDS011;33688;44.354;9.228;2022-10-16T11:29:01;2.13;;;1.42;;
47922;SDS011;33688;44.354;9.228;2022-10-16T11:31:37;1.55;;;1.38;;
47922;SDS011;33688;44.354;9.228;2022-10-16T11:34:17;1.40;;;1.30;;
47922;SDS011;33688;44.354;9.228;2022-10-16T11:37:03;2.03;;;1.23;;
47922;SDS011;33688;44.354;9.228;2022-10-16T11:39:31;1.65;;;1.35;;
47922;SDS011;33688;44.354;9.228;2022-10-16T11:47:38;2.47;;;1.48;;
47922;SDS011;33688;44.354;9.228;2022-10-16T11:50:31;1.77;;;1.10;;
47922;SDS011;33688;44.354;9.228;2022-10-16T11:53:28;1.60;;;1.50;;
47922;SDS011;33688;44.354;9.228;2022-10-16T11:56:20;1.23;;;0.93;;
47922;SDS011;33688;44.354;9.228;2022-10-16T11:59:00;1.75;;;1.50;;
47922;SDS011;33688;44.354;9.228;2022-10-16T12:07:50;1.45;;;1.30;;
47922;SDS011;33688;44.354;9.228;2022-10-16T12:10:38;1.83;;;1.30;;
47922;SDS011;33688;44.354;9.228;2022-10-16T12:16:04;1.27;;;1.17;;
47922;SDS011;33688;44.354;9.228;2022-10-16T12:18:31;1.73;;;1.10;;
47922;SDS011;33688;44.354;9.228;2022-10-16T12:20:58;1.73;;;1.00;;
47922;SDS011;33688;44.354;9.228;2022-10-16T12:23:30;2.33;;;1.30;;
47922;SDS011;33688;44.354;9.228;2022-10-16T12:25:58;2.08;;;1.55;;
47922;SDS011;33688;44.354;9.228;2022-10-16T12:28:26;1.65;;;1.33;;
47922;SDS011;33688;44.354;9.228;2022-10-16T12:33:27;1.40;;;1.30;;
47922;SDS011;33688;44.354;9.228;2022-10-16T12:35:59;1.30;;;0.95;;
47922;SDS011;33688;44.354;9.228;2022-10-16T12:38:45;1.67;;;1.40;;
47922;SDS011;33688;44.354;9.228;2022-10-16T12:41:30;2.30;;;1.47;;
47922;SDS011;33688;44.354;9.228;2022-10-16T12:44:02;0.98;;;0.98;;
47922;SDS011;33688;44.354;9.228;2022-10-16T12:49:05;1.20;;;1.10;;
47922;SDS011;33688;44.354;9.228;2022-10-16T12:51:41;2.20;;;1.40;;
47922;SDS011;33688;44.354;9.228;2022-10-16T12:57:04;1.33;;;1.02;;
47922;SDS011;33688;44.354;9.228;2022-10-16T13:00:32;1.20;;;1.00;;
47922;SDS011;33688;44.354;9.228;2022-10-16T13:11:22;1.73;;;1.27;;
47922;SDS011;33688;44.354;9.228;2022-10-16T13:17:25;1.27;;;1.08;;
47922;SDS011;33688;44.354;9.228;2022-10-16T13:23:49;1.33;;;1.13;;
47922;SDS011;33688;44.354;9.228;2022-10-16T13:29:31;1.50;;;1.20;;
47922;SDS011;33688;44.354;9.228;2022-10-16T13:32:06;1.77;;;1.35;;
47922;SDS011;33688;44.354;9.228;2022-10-16T13:34:43;1.70;;;1.33;;
47922;SDS011;33688;44.354;9.228;2022-10-16T13:37:20;1.70;;;1.40;;
47922;SDS011;33688;44.354;9.228;2022-10-16T13:39:48;1.38;;;1.27;;
47922;SDS011;33688;44.354;9.228;2022-10-16T13:44:53;2.30;;;1.52;;
47922;SDS011;33688;44.354;9.228;2022-10-16T13:47:21;2.25;;;1.65;;
47922;SDS011;33688;44.354;9.228;2022-10-16T13:50:05;4.32;;;1.20;;
47922;SDS011;33688;44.354;9.228;2022-10-16T13:52:37;2.90;;;1.58;;
47922;SDS011;33688;44.354;9.228;2022-10-16T13:55:04;1.92;;;1.25;;
47922;SDS011;33688;44.354;9.228;2022-10-16T13:57:39;1.85;;;1.35;;
47922;SDS011;33688;44.354;9.228;2022-10-16T14:00:27;2.63;;;1.52;;
47922;SDS011;33688;44.354;9.228;2022-10-16T14:02:58;2.28;;;1.50;;
47922;SDS011;33688;44.354;9.228;2022-10-16T14:07:55;2.15;;;1.55;;
47922;SDS011;33688;44.354;9.228;2022-10-16T14:10:24;1.75;;;1.42;;
47922;SDS011;33688;44.354;9.228;2022-10-16T14:13:03;1.48;;;0.93;;
47922;SDS011;33688;44.354;9.228;2022-10-16T14:15:32;1.48;;;1.38;;
47922;SDS011;33688;44.354;9.228;2022-10-16T14:18:00;2.03;;;1.33;;
47922;SDS011;33688;44.354;9.228;2022-10-16T14:20:29;3.03;;;1.42;;
47922;SDS011;33688;44.354;9.228;2022-10-16T14:23:01;3.38;;;1.35;;
47922;SDS011;33688;44.354;9.228;2022-10-16T14:25:54;1.85;;;1.38;;
47922;SDS011;33688;44.354;9.228;2022-10-16T14:28:42;1.58;;;1.35;;
47922;SDS011;33688;44.354;9.228;2022-10-16T14:33:56;1.35;;;1.17;;
47922;SDS011;33688;44.354;9.228;2022-10-16T14:36:22;1.70;;;1.42;;
47922;SDS011;33688;44.354;9.228;2022-10-16T14:41:47;1.20;;;1.10;;
47922;SDS011;33688;44.354;9.228;2022-10-16T14:44:16;1.92;;;1.20;;
47922;SDS011;33688;44.354;9.228;2022-10-16T14:46:44;1.15;;;1.13;;
47922;SDS011;33688;44.354;9.228;2022-10-16T14:51:37;1.45;;;1.35;;
47922;SDS011;33688;44.354;9.228;2022-10-16T14:54:08;1.40;;;1.30;;
47922;SDS011;33688;44.354;9.228;2022-10-16T14:56:41;1.33;;;1.23;;
47922;SDS011;33688;44.354;9.228;2022-10-16T14:59:23;1.27;;;1.17;;
47922;SDS011;33688;44.354;9.228;2022-10-16T15:01:57;2.20;;;1.40;;
47922;SDS011;33688;44.354;9.228;2022-10-16T15:04:23;2.88;;;1.35;;
47922;SDS011;33688;44.354;9.228;2022-10-16T15:06:49;1.20;;;1.02;;
47922;SDS011;33688;44.354;9.228;2022-10-16T15:09:15;2.25;;;1.42;;
47922;SDS011;33688;44.354;9.228;2022-10-16T15:11:41;3.10;;;1.10;;
47922;SDS011;33688;44.354;9.228;2022-10-16T15:14:09;2.22;;;1.70;;
47922;SDS011;33688;44.354;9.228;2022-10-16T15:16:38;2.72;;;1.20;;
47922;SDS011;33688;44.354;9.228;2022-10-16T15:19:04;1.25;;;1.10;;
47922;SDS011;33688;44.354;9.228;2022-10-16T15:21:30;2.47;;;1.40;;
47922;SDS011;33688;44.354;9.228;2022-10-16T15:23:58;1.35;;;1.23;;
47922;SDS011;33688;44.354;9.228;2022-10-16T15:26:28;1.60;;;1.08;;
47922;SDS011;33688;44.354;9.228;2022-10-16T15:28:55;2.60;;;1.50;;
47922;SDS011;33688;44.354;9.228;2022-10-16T15:31:30;1.10;;;1.00;;
47922;SDS011;33688;44.354;9.228;2022-10-16T15:33:57;1.42;;;1.20;;
47922;SDS011;33688;44.354;9.228;2022-10-16T15:36:29;2.13;;;1.10;;
47922;SDS011;33688;44.354;9.228;2022-10-16T15:39:02;3.53;;;1.58;;
47922;SDS011;33688;44.354;9.228;2022-10-16T15:41:29;1.30;;;1.20;;
47922;SDS011;33688;44.354;9.228;2022-10-16T15:43:54;1.30;;;1.20;;
47922;SDS011;33688;44.354;9.228;2022-10-16T15:46:21;1.83;;;1.30;;
47922;SDS011;33688;44.354;9.228;2022-10-16T15:48:49;2.00;;;1.13;;
47922;SDS011;33688;44.354;9.228;2022-10-16T15:51:16;1.48;;;1.15;;
47922;SDS011;33688;44.354;9.228;2022-10-16T15:53:44;1.83;;;1.50;;
47922;SDS011;33688;44.354;9.228;2022-10-16T15:56:11;1.40;;;1.20;;
47922;SDS011;33688;44.354;9.228;2022-10-16T15:58:38;1.70;;;1.40;;
47922;SDS011;33688;44.354;9.228;2022-10-16T16:01:04;1.17;;;1.08;;
47922;SDS011;33688;44.354;9.228;2022-10-16T16:03:31;1.20;;;1.00;;
47922;SDS011;33688;44.354;9.228;2022-10-16T16:05:58;1.35;;;1.23;;
47922;SDS011;33688;44.354;9.228;2022-10-16T16:08:33;1.13;;;1.02;;
47922;SDS011;33688;44.354;9.228;2022-10-16T16:11:01;1.38;;;1.27;;
47922;SDS011;33688;44.354;9.228;2022-10-16T16:13:31;1.40;;;1.30;;
47922;SDS011;33688;44.354;9.228;2022-10-16T16:15:57;1.02;;;1.00;;
47922;SDS011;33688;44.354;9.228;2022-10-16T16:18:23;1.73;;;1.40;;
47922;SDS011;33688;44.354;9.228;2022-10-16T16:20:50;1.58;;;1.42;;
47922;SDS011;33688;44.354;9.228;2022-10-16T16:23:16;2.67;;;1.50;;
47922;SDS011;33688;44.354;9.228;2022-10-16T16:25:44;1.67;;;1.23;;
47922;SDS011;33688;44.354;9.228;2022-10-16T16:28:10;1.20;;;1.10;;
47922;SDS011;33688;44.354;9.228;2022-10-16T16:30:39;1.17;;;1.08;;
47922;SDS011;33688;44.354;9.228;2022-10-16T16:33:06;1.27;;;0.90;;
47922;SDS011;33688;44.354;9.228;2022-10-16T16:35:32;1.02;;;0.93;;
47922;SDS011;33688;44.354;9.228;2022-10-16T16:37:57;1.40;;;1.00;;
47922;SDS011;33688;44.354;9.228;2022-10-16T16:40:23;0.98;;;0.90;;
47922;SDS011;33688;44.354;9.228;2022-10-16T16:42:49;1.23;;;1.10;;
47922;SDS011;33688;44.354;9.228;2022-10-16T16:45:15;1.38;;;1.10;;
47922;SDS011;33688;44.354;9.228;2022-10-16T16:47:41;1.40;;;1.30;;
47922;SDS011;33688;44.354;9.228;2022-10-16T16:50:07;1.17;;;1.08;;
47922;SDS011;33688;44.354;9.228;2022-10-16T16:52:34;1.25;;;1.00;;
47922;SDS011;33688;44.354;9.228;2022-10-16T16:55:00;1.85;;;1.20;;
47922;SDS011;33688;44.354;9.228;2022-10-16T16:57:27;2.05;;;1.40;;
47922;SDS011;33688;44.354;9.228;2022-10-16T16:59:52;1.20;;;1.10;;
47922;SDS011;33688;44.354;9.228;2022-10-16T17:02:18;2.65;;;1.50;;
47922;SDS011;33688;44.354;9.228;2022-10-16T17:04:44;1.10;;;1.00;;